sensor_id;sensor_type;location;lat;lon;timestamp;P1;durP1;ratioP1;P2;durP2;ratioP2
16665;SDS011;8446;50.998;6.250;2022-12-18T00:02:06;9.68;;;6.40;;
16665;SDS011;8446;50.998;6.250;2022-12-18T00:04:33;13.65;;;6.93;;
16665;SDS011;8446;50.998;6.250;2022-12-18T00:07:00;13.85;;;7.30;;
16665;SDS011;8446;50.998;6.250;2022-12-18T00:09:27;16.05;;;7.72;;
16665;SDS011;8446;50.998;6.250;2022-12-18T00:11:55;17.95;;;8.27;;
16665;SDS011;8446;50.998;6.250;2022-12-18T00:14:22;12.93;;;6.57;;
16665;SDS011;8446;50.998;6.250;2022-12-18T00:16:49;16.90;;;6.85;;
16665;SDS011;8446;50.998;6.250;2022-12-18T00:19:17;21.33;;;8.02;;
16665;SDS011;8446;50.998;6.250;2022-12-18T00:21:44;7.88;;;6.15;;
16665;SDS011;8446;50.998;6.250;2022-12-18T00:24:11;14.98;;;7.00;;
16665;SDS011;8446;50.998;6.250;2022-12-18T00:26:38;13.15;;;7.22;;
16665;SDS011;8446;50.998;6.250;2022-12-18T00:29:07;16.23;;;6.70;;
16665;SDS011;8446;50.998;6.250;2022-12-18T00:31:35;15.20;;;7.13;;
16665;SDS011;8446;50.998;6.250;2022-12-18T00:34:02;10.55;;;7.35;;
16665;SDS011;8446;50.998;6.250;2022-12-18T00:36:31;13.27;;;8.00;;
16665;SDS011;8446;50.998;6.250;2022-12-18T00:38:58;17.40;;;7.07;;
16665;SDS011;8446;50.998;6.250;2022-12-18T00:41:26;15.57;;;9.15;;
16665;SDS011;8446;50.998;6.250;2022-12-18T00:44:11;17.65;;;6.72;;
16665;SDS011;8446;50.998;6.250;2022-12-18T00:46:39;16.35;;;6.75;;
16665;SDS011;8446;50.998;6.250;2022-12-18T00:49:06;12.85;;;6.75;;
16665;SDS011;8446;50.998;6.250;2022-12-18T00:51:35;16.52;;;7.72;;
16665;SDS011;8446;50.998;6.250;2022-12-18T00:54:02;14.48;;;8.65;;
16665;SDS011;8446;50.998;6.250;2022-12-18T00:56:29;13.07;;;7.63;;
16665;SDS011;8446;50.998;6.250;2022-12-18T00:58:56;13.80;;;8.27;;
16665;SDS011;8446;50.998;6.250;2022-12-18T01:01:23;15.23;;;7.93;;
16665;SDS011;8446;50.998;6.250;2022-12-18T01:03:51;17.17;;;8.00;;
16665;SDS011;8446;50.998;6.250;2022-12-18T01:06:18;17.52;;;8.23;;
16665;SDS011;8446;50.998;6.250;2022-12-18T01:08:46;14.55;;;7.28;;
16665;SDS011;8446;50.998;6.250;2022-12-18T01:11:15;13.88;;;8.63;;
16665;SDS011;8446;50.998;6.250;2022-12-18T01:13:43;16.95;;;6.63;;
16665;SDS011;8446;50.998;6.250;2022-12-18T01:16:11;16.55;;;7.32;;
16665;SDS011;8446;50.998;6.250;2022-12-18T01:18:38;19.10;;;8.10;;
16665;SDS011;8446;50.998;6.250;2022-12-18T01:21:06;12.98;;;7.10;;
16665;SDS011;8446;50.998;6.250;2022-12-18T01:23:33;14.98;;;8.55;;
16665;SDS011;8446;50.998;6.250;2022-12-18T01:26:05;11.50;;;7.55;;
16665;SDS011;8446;50.998;6.250;2022-12-18T01:28:32;16.33;;;6.95;;
16665;SDS011;8446;50.998;6.250;2022-12-18T01:31:09;22.00;;;7.20;;
16665;SDS011;8446;50.998;6.250;2022-12-18T01:33:36;18.73;;;6.90;;
16665;SDS011;8446;50.998;6.250;2022-12-18T01:36:03;20.52;;;7.28;;
16665;SDS011;8446;50.998;6.250;2022-12-18T01:38:30;21.25;;;9.13;;
16665;SDS011;8446;50.998;6.250;2022-12-18T01:40:57;16.13;;;7.88;;
16665;SDS011;8446;50.998;6.250;2022-12-18T01:46:07;14.15;;;6.95;;
16665;SDS011;8446;50.998;6.250;2022-12-18T01:48:35;12.55;;;5.22;;
16665;SDS011;8446;50.998;6.250;2022-12-18T01:51:02;16.55;;;6.60;;
16665;SDS011;8446;50.998;6.250;2022-12-18T01:53:29;13.48;;;6.60;;
16665;SDS011;8446;50.998;6.250;2022-12-18T01:55:56;11.57;;;6.10;;
16665;SDS011;8446;50.998;6.250;2022-12-18T01:58:27;10.30;;;5.70;;
16665;SDS011;8446;50.998;6.250;2022-12-18T02:00:54;10.95;;;5.03;;
16665;SDS011;8446;50.998;6.250;2022-12-18T02:03:23;20.88;;;6.70;;
16665;SDS011;8446;50.998;6.250;2022-12-18T02:05:51;9.52;;;5.20;;
16665;SDS011;8446;50.998;6.250;2022-12-18T02:08:25;16.30;;;6.88;;
16665;SDS011;8446;50.998;6.250;2022-12-18T02:10:54;9.48;;;5.45;;
16665;SDS011;8446;50.998;6.250;2022-12-18T02:13:26;8.30;;;5.07;;
16665;SDS011;8446;50.998;6.250;2022-12-18T02:15:57;11.40;;;6.47;;
16665;SDS011;8446;50.998;6.250;2022-12-18T02:18:27;11.38;;;5.10;;
16665;SDS011;8446;50.998;6.250;2022-12-18T02:20:57;10.27;;;5.57;;
16665;SDS011;8446;50.998;6.250;2022-12-18T02:23:31;11.45;;;5.93;;
16665;SDS011;8446;50.998;6.250;2022-12-18T02:26:06;14.52;;;5.55;;
16665;SDS011;8446;50.998;6.250;2022-12-18T02:28:35;7.93;;;5.43;;
16665;SDS011;8446;50.998;6.250;2022-12-18T02:31:04;9.32;;;4.97;;
16665;SDS011;8446;50.998;6.250;2022-12-18T02:33:32;10.38;;;5.55;;
16665;SDS011;8446;50.998;6.250;2022-12-18T02:36:00;8.18;;;5.05;;
16665;SDS011;8446;50.998;6.250;2022-12-18T02:38:28;8.90;;;5.30;;
16665;SDS011;8446;50.998;6.250;2022-12-18T02:40:56;10.10;;;5.25;;
16665;SDS011;8446;50.998;6.250;2022-12-18T02:43:25;8.43;;;4.70;;
16665;SDS011;8446;50.998;6.250;2022-12-18T02:45:53;8.30;;;4.20;;
16665;SDS011;8446;50.998;6.250;2022-12-18T02:48:22;11.98;;;5.38;;
16665;SDS011;8446;50.998;6.250;2022-12-18T02:50:52;9.48;;;5.25;;
16665;SDS011;8446;50.998;6.250;2022-12-18T02:53:23;8.20;;;4.90;;
16665;SDS011;8446;50.998;6.250;2022-12-18T02:55:54;9.93;;;4.60;;
16665;SDS011;8446;50.998;6.250;2022-12-18T02:58:26;13.27;;;5.93;;
16665;SDS011;8446;50.998;6.250;2022-12-18T03:00:57;18.13;;;5.45;;
16665;SDS011;8446;50.998;6.250;2022-12-18T03:03:26;14.05;;;6.82;;
16665;SDS011;8446;50.998;6.250;2022-12-18T03:05:56;11.90;;;5.20;;
16665;SDS011;8446;50.998;6.250;2022-12-18T03:08:26;5.70;;;4.20;;
16665;SDS011;8446;50.998;6.250;2022-12-18T03:10:56;10.68;;;5.18;;
16665;SDS011;8446;50.998;6.250;2022-12-18T03:13:27;8.32;;;5.80;;
16665;SDS011;8446;50.998;6.250;2022-12-18T03:15:55;8.35;;;5.30;;
16665;SDS011;8446;50.998;6.250;2022-12-18T03:18:24;17.33;;;5.88;;
16665;SDS011;8446;50.998;6.250;2022-12-18T03:20:52;10.50;;;6.25;;
16665;SDS011;8446;50.998;6.250;2022-12-18T03:23:21;11.90;;;5.45;;
16665;SDS011;8446;50.998;6.250;2022-12-18T03:25:50;12.50;;;5.93;;
16665;SDS011;8446;50.998;6.250;2022-12-18T03:28:19;11.82;;;5.72;;
16665;SDS011;8446;50.998;6.250;2022-12-18T03:30:49;16.15;;;5.75;;
16665;SDS011;8446;50.998;6.250;2022-12-18T03:33:19;9.40;;;4.32;;
16665;SDS011;8446;50.998;6.250;2022-12-18T03:35:50;9.02;;;5.43;;
16665;SDS011;8446;50.998;6.250;2022-12-18T03:38:17;10.07;;;5.20;;
16665;SDS011;8446;50.998;6.250;2022-12-18T03:40:48;12.85;;;6.63;;
16665;SDS011;8446;50.998;6.250;2022-12-18T03:43:19;12.13;;;5.85;;
16665;SDS011;8446;50.998;6.250;2022-12-18T03:45:50;10.32;;;5.97;;
16665;SDS011;8446;50.998;6.250;2022-12-18T03:48:19;12.65;;;5.60;;
16665;SDS011;8446;50.998;6.250;2022-12-18T03:50:49;11.25;;;5.90;;
16665;SDS011;8446;50.998;6.250;2022-12-18T03:53:22;8.73;;;6.18;;
16665;SDS011;8446;50.998;6.250;2022-12-18T03:55:52;15.52;;;6.95;;
16665;SDS011;8446;50.998;6.250;2022-12-18T03:58:20;10.48;;;6.30;;
16665;SDS011;8446;50.998;6.250;2022-12-18T04:00:51;7.97;;;5.43;;
16665;SDS011;8446;50.998;6.250;2022-12-18T04:03:19;13.70;;;5.22;;
16665;SDS011;8446;50.998;6.250;2022-12-18T04:05:46;12.18;;;6.60;;
16665;SDS011;8446;50.998;6.250;2022-12-18T04:08:15;11.80;;;6.95;;
16665;SDS011;8446;50.998;6.250;2022-12-18T04:10:42;9.20;;;5.10;;
16665;SDS011;8446;50.998;6.250;2022-12-18T04:13:09;12.82;;;6.78;;
16665;SDS011;8446;50.998;6.250;2022-12-18T04:15:36;10.23;;;6.05;;
16665;SDS011;8446;50.998;6.250;2022-12-18T04:18:05;15.95;;;6.55;;
16665;SDS011;8446;50.998;6.250;2022-12-18T04:20:33;11.05;;;5.50;;
16665;SDS011;8446;50.998;6.250;2022-12-18T04:23:00;13.57;;;5.93;;
16665;SDS011;8446;50.998;6.250;2022-12-18T04:25:27;15.15;;;6.72;;
16665;SDS011;8446;50.998;6.250;2022-12-18T04:27:54;11.60;;;6.15;;
16665;SDS011;8446;50.998;6.250;2022-12-18T04:30:21;15.98;;;6.60;;
16665;SDS011;8446;50.998;6.250;2022-12-18T04:32:48;17.10;;;7.57;;
16665;SDS011;8446;50.998;6.250;2022-12-18T04:35:17;11.43;;;6.38;;
16665;SDS011;8446;50.998;6.250;2022-12-18T04:37:44;13.38;;;7.40;;
16665;SDS011;8446;50.998;6.250;2022-12-18T04:40:12;14.23;;;6.93;;
16665;SDS011;8446;50.998;6.250;2022-12-18T04:42:39;14.10;;;6.20;;
16665;SDS011;8446;50.998;6.250;2022-12-18T04:45:06;13.68;;;7.03;;
16665;SDS011;8446;50.998;6.250;2022-12-18T04:47:34;18.25;;;6.82;;
16665;SDS011;8446;50.998;6.250;2022-12-18T04:50:01;15.70;;;6.38;;
16665;SDS011;8446;50.998;6.250;2022-12-18T04:52:29;11.30;;;5.35;;
16665;SDS011;8446;50.998;6.250;2022-12-18T04:54:56;13.82;;;7.18;;
16665;SDS011;8446;50.998;6.250;2022-12-18T04:57:23;10.15;;;5.50;;
16665;SDS011;8446;50.998;6.250;2022-12-18T04:59:51;14.38;;;7.13;;
16665;SDS011;8446;50.998;6.250;2022-12-18T05:02:18;11.20;;;6.93;;
16665;SDS011;8446;50.998;6.250;2022-12-18T05:04:45;12.75;;;6.88;;
16665;SDS011;8446;50.998;6.250;2022-12-18T05:07:12;10.23;;;5.97;;
16665;SDS011;8446;50.998;6.250;2022-12-18T05:09:40;10.65;;;5.75;;
16665;SDS011;8446;50.998;6.250;2022-12-18T05:12:07;21.42;;;7.22;;
16665;SDS011;8446;50.998;6.250;2022-12-18T05:14:34;25.95;;;6.50;;
16665;SDS011;8446;50.998;6.250;2022-12-18T05:17:02;17.88;;;7.63;;
16665;SDS011;8446;50.998;6.250;2022-12-18T05:19:29;13.32;;;5.75;;
16665;SDS011;8446;50.998;6.250;2022-12-18T05:21:56;10.25;;;4.72;;
16665;SDS011;8446;50.998;6.250;2022-12-18T05:24:23;14.40;;;5.90;;
16665;SDS011;8446;50.998;6.250;2022-12-18T05:26:51;8.27;;;5.60;;
16665;SDS011;8446;50.998;6.250;2022-12-18T05:29:18;10.65;;;6.15;;
16665;SDS011;8446;50.998;6.250;2022-12-18T05:31:46;12.27;;;5.93;;
16665;SDS011;8446;50.998;6.250;2022-12-18T05:34:13;13.68;;;5.90;;
16665;SDS011;8446;50.998;6.250;2022-12-18T05:36:40;15.82;;;8.10;;
16665;SDS011;8446;50.998;6.250;2022-12-18T05:39:07;13.15;;;6.70;;
16665;SDS011;8446;50.998;6.250;2022-12-18T05:41:34;13.63;;;5.47;;
16665;SDS011;8446;50.998;6.250;2022-12-18T05:44:03;13.90;;;7.30;;
16665;SDS011;8446;50.998;6.250;2022-12-18T05:46:30;11.38;;;6.03;;
16665;SDS011;8446;50.998;6.250;2022-12-18T05:48:58;16.73;;;8.30;;
16665;SDS011;8446;50.998;6.250;2022-12-18T05:51:26;15.85;;;7.25;;
16665;SDS011;8446;50.998;6.250;2022-12-18T05:53:53;9.05;;;6.15;;
16665;SDS011;8446;50.998;6.250;2022-12-18T05:56:21;13.95;;;9.00;;
16665;SDS011;8446;50.998;6.250;2022-12-18T05:58:50;16.95;;;6.95;;
16665;SDS011;8446;50.998;6.250;2022-12-18T06:01:20;15.82;;;8.20;;
16665;SDS011;8446;50.998;6.250;2022-12-18T06:03:47;21.95;;;9.57;;
16665;SDS011;8446;50.998;6.250;2022-12-18T06:06:15;14.88;;;6.53;;
16665;SDS011;8446;50.998;6.250;2022-12-18T06:08:42;18.92;;;7.97;;
16665;SDS011;8446;50.998;6.250;2022-12-18T06:11:09;16.05;;;8.05;;
16665;SDS011;8446;50.998;6.250;2022-12-18T06:13:36;10.88;;;6.32;;
16665;SDS011;8446;50.998;6.250;2022-12-18T06:16:03;17.90;;;7.80;;
16665;SDS011;8446;50.998;6.250;2022-12-18T06:18:32;16.00;;;6.90;;
16665;SDS011;8446;50.998;6.250;2022-12-18T06:21:01;20.27;;;9.10;;
16665;SDS011;8446;50.998;6.250;2022-12-18T06:23:28;14.52;;;7.63;;
16665;SDS011;8446;50.998;6.250;2022-12-18T06:25:55;15.98;;;6.88;;
16665;SDS011;8446;50.998;6.250;2022-12-18T06:28:22;17.40;;;7.60;;
16665;SDS011;8446;50.998;6.250;2022-12-18T06:30:50;15.95;;;5.78;;
16665;SDS011;8446;50.998;6.250;2022-12-18T06:33:18;18.30;;;8.00;;
16665;SDS011;8446;50.998;6.250;2022-12-18T06:35:46;13.90;;;7.00;;
16665;SDS011;8446;50.998;6.250;2022-12-18T06:38:13;17.02;;;6.72;;
16665;SDS011;8446;50.998;6.250;2022-12-18T06:40:40;10.50;;;6.97;;
16665;SDS011;8446;50.998;6.250;2022-12-18T06:43:07;20.05;;;6.90;;
16665;SDS011;8446;50.998;6.250;2022-12-18T06:45:34;13.95;;;6.70;;
16665;SDS011;8446;50.998;6.250;2022-12-18T06:48:01;17.60;;;8.68;;
16665;SDS011;8446;50.998;6.250;2022-12-18T06:50:28;10.63;;;6.03;;
16665;SDS011;8446;50.998;6.250;2022-12-18T06:52:57;13.70;;;7.70;;
16665;SDS011;8446;50.998;6.250;2022-12-18T06:55:24;15.63;;;8.60;;
16665;SDS011;8446;50.998;6.250;2022-12-18T06:57:51;29.50;;;10.93;;
16665;SDS011;8446;50.998;6.250;2022-12-18T07:00:18;29.08;;;10.40;;
16665;SDS011;8446;50.998;6.250;2022-12-18T07:02:46;26.63;;;9.90;;
16665;SDS011;8446;50.998;6.250;2022-12-18T07:05:14;21.98;;;8.23;;
16665;SDS011;8446;50.998;6.250;2022-12-18T07:07:41;25.85;;;9.90;;
16665;SDS011;8446;50.998;6.250;2022-12-18T07:10:09;21.45;;;9.07;;
16665;SDS011;8446;50.998;6.250;2022-12-18T07:12:36;23.90;;;9.93;;
16665;SDS011;8446;50.998;6.250;2022-12-18T07:15:04;18.70;;;9.05;;
16665;SDS011;8446;50.998;6.250;2022-12-18T07:17:31;18.30;;;8.43;;
16665;SDS011;8446;50.998;6.250;2022-12-18T07:19:58;16.13;;;7.53;;
16665;SDS011;8446;50.998;6.250;2022-12-18T07:22:26;26.85;;;9.55;;
16665;SDS011;8446;50.998;6.250;2022-12-18T07:24:53;18.52;;;8.30;;
16665;SDS011;8446;50.998;6.250;2022-12-18T07:27:22;12.68;;;7.68;;
16665;SDS011;8446;50.998;6.250;2022-12-18T07:29:49;16.80;;;7.38;;
16665;SDS011;8446;50.998;6.250;2022-12-18T07:32:16;12.27;;;8.07;;
16665;SDS011;8446;50.998;6.250;2022-12-18T07:34:43;14.27;;;7.75;;
16665;SDS011;8446;50.998;6.250;2022-12-18T07:37:10;15.23;;;7.32;;
16665;SDS011;8446;50.998;6.250;2022-12-18T07:39:37;20.27;;;8.88;;
16665;SDS011;8446;50.998;6.250;2022-12-18T07:42:04;16.10;;;8.93;;
16665;SDS011;8446;50.998;6.250;2022-12-18T07:44:50;13.65;;;8.50;;
16665;SDS011;8446;50.998;6.250;2022-12-18T07:47:17;16.73;;;8.20;;
16665;SDS011;8446;50.998;6.250;2022-12-18T07:49:44;16.52;;;7.70;;
16665;SDS011;8446;50.998;6.250;2022-12-18T07:52:12;16.55;;;7.82;;
16665;SDS011;8446;50.998;6.250;2022-12-18T07:54:39;16.60;;;6.97;;
16665;SDS011;8446;50.998;6.250;2022-12-18T07:57:06;16.98;;;8.35;;
16665;SDS011;8446;50.998;6.250;2022-12-18T07:59:33;17.23;;;7.78;;
16665;SDS011;8446;50.998;6.250;2022-12-18T08:02:02;11.88;;;6.68;;
16665;SDS011;8446;50.998;6.250;2022-12-18T08:04:29;16.95;;;8.65;;
16665;SDS011;8446;50.998;6.250;2022-12-18T08:07:04;17.15;;;8.55;;
16665;SDS011;8446;50.998;6.250;2022-12-18T08:09:31;19.83;;;8.48;;
16665;SDS011;8446;50.998;6.250;2022-12-18T08:11:58;16.70;;;7.57;;
16665;SDS011;8446;50.998;6.250;2022-12-18T08:14:25;15.10;;;7.70;;
16665;SDS011;8446;50.998;6.250;2022-12-18T08:16:52;12.25;;;7.45;;
16665;SDS011;8446;50.998;6.250;2022-12-18T08:19:21;18.40;;;7.97;;
16665;SDS011;8446;50.998;6.250;2022-12-18T08:21:48;21.20;;;8.57;;
16665;SDS011;8446;50.998;6.250;2022-12-18T08:24:15;25.63;;;9.50;;
16665;SDS011;8446;50.998;6.250;2022-12-18T08:26:42;13.15;;;8.30;;
16665;SDS011;8446;50.998;6.250;2022-12-18T08:29:09;16.45;;;9.65;;
16665;SDS011;8446;50.998;6.250;2022-12-18T08:31:36;18.30;;;9.35;;
16665;SDS011;8446;50.998;6.250;2022-12-18T08:34:03;22.60;;;10.95;;
16665;SDS011;8446;50.998;6.250;2022-12-18T08:36:32;22.80;;;10.77;;
16665;SDS011;8446;50.998;6.250;2022-12-18T08:39:01;17.90;;;8.35;;
16665;SDS011;8446;50.998;6.250;2022-12-18T08:41:28;19.60;;;9.00;;
16665;SDS011;8446;50.998;6.250;2022-12-18T08:43:55;16.98;;;8.82;;
16665;SDS011;8446;50.998;6.250;2022-12-18T08:46:42;19.88;;;8.48;;
16665;SDS011;8446;50.998;6.250;2022-12-18T08:49:09;18.60;;;7.60;;
16665;SDS011;8446;50.998;6.250;2022-12-18T08:51:38;14.85;;;7.97;;
16665;SDS011;8446;50.998;6.250;2022-12-18T08:54:05;15.88;;;7.70;;
16665;SDS011;8446;50.998;6.250;2022-12-18T08:56:33;13.82;;;7.75;;
16665;SDS011;8446;50.998;6.250;2022-12-18T08:59:00;17.48;;;8.20;;
16665;SDS011;8446;50.998;6.250;2022-12-18T09:01:27;15.77;;;8.85;;
16665;SDS011;8446;50.998;6.250;2022-12-18T09:03:54;18.08;;;8.38;;
16665;SDS011;8446;50.998;6.250;2022-12-18T09:06:21;19.08;;;8.30;;
16665;SDS011;8446;50.998;6.250;2022-12-18T09:08:50;15.15;;;7.53;;
16665;SDS011;8446;50.998;6.250;2022-12-18T09:11:19;18.40;;;8.20;;
16665;SDS011;8446;50.998;6.250;2022-12-18T09:13:46;18.90;;;8.57;;
16665;SDS011;8446;50.998;6.250;2022-12-18T09:16:13;23.02;;;8.13;;
16665;SDS011;8446;50.998;6.250;2022-12-18T09:18:41;14.20;;;8.48;;
16665;SDS011;8446;50.998;6.250;2022-12-18T09:21:08;18.00;;;9.20;;
16665;SDS011;8446;50.998;6.250;2022-12-18T09:23:36;22.08;;;9.35;;
16665;SDS011;8446;50.998;6.250;2022-12-18T09:26:04;17.23;;;9.00;;
16665;SDS011;8446;50.998;6.250;2022-12-18T09:28:31;18.10;;;9.00;;
16665;SDS011;8446;50.998;6.250;2022-12-18T09:30:58;14.40;;;7.00;;
16665;SDS011;8446;50.998;6.250;2022-12-18T09:33:25;17.48;;;8.73;;
16665;SDS011;8446;50.998;6.250;2022-12-18T09:35:53;15.45;;;8.27;;
16665;SDS011;8446;50.998;6.250;2022-12-18T09:38:20;13.40;;;8.10;;
16665;SDS011;8446;50.998;6.250;2022-12-18T09:40:48;17.75;;;7.85;;
16665;SDS011;8446;50.998;6.250;2022-12-18T09:43:19;14.77;;;7.47;;
16665;SDS011;8446;50.998;6.250;2022-12-18T09:45:47;9.60;;;6.80;;
16665;SDS011;8446;50.998;6.250;2022-12-18T09:48:18;14.82;;;8.43;;
16665;SDS011;8446;50.998;6.250;2022-12-18T09:50:45;17.23;;;9.05;;
16665;SDS011;8446;50.998;6.250;2022-12-18T09:53:15;15.43;;;6.85;;
16665;SDS011;8446;50.998;6.250;2022-12-18T09:55:44;16.75;;;8.57;;
16665;SDS011;8446;50.998;6.250;2022-12-18T09:58:13;15.88;;;8.45;;
16665;SDS011;8446;50.998;6.250;2022-12-18T10:00:44;19.45;;;9.68;;
16665;SDS011;8446;50.998;6.250;2022-12-18T10:03:12;19.70;;;9.05;;
16665;SDS011;8446;50.998;6.250;2022-12-18T10:05:40;19.17;;;9.48;;
16665;SDS011;8446;50.998;6.250;2022-12-18T10:08:10;15.15;;;8.07;;
16665;SDS011;8446;50.998;6.250;2022-12-18T10:10:41;21.23;;;9.15;;
16665;SDS011;8446;50.998;6.250;2022-12-18T10:13:10;16.60;;;8.38;;
16665;SDS011;8446;50.998;6.250;2022-12-18T10:15:43;15.18;;;7.43;;
16665;SDS011;8446;50.998;6.250;2022-12-18T10:18:19;18.83;;;9.07;;
16665;SDS011;8446;50.998;6.250;2022-12-18T10:20:47;17.33;;;8.82;;
16665;SDS011;8446;50.998;6.250;2022-12-18T10:23:17;14.05;;;7.93;;
16665;SDS011;8446;50.998;6.250;2022-12-18T10:25:49;17.85;;;9.38;;
16665;SDS011;8446;50.998;6.250;2022-12-18T10:28:17;16.48;;;8.10;;
16665;SDS011;8446;50.998;6.250;2022-12-18T10:30:45;15.50;;;8.45;;
16665;SDS011;8446;50.998;6.250;2022-12-18T10:33:13;18.48;;;8.82;;
16665;SDS011;8446;50.998;6.250;2022-12-18T10:35:42;15.02;;;8.52;;
16665;SDS011;8446;50.998;6.250;2022-12-18T10:38:20;16.10;;;9.05;;
16665;SDS011;8446;50.998;6.250;2022-12-18T10:40:48;16.30;;;8.20;;
16665;SDS011;8446;50.998;6.250;2022-12-18T10:43:19;16.92;;;9.25;;
16665;SDS011;8446;50.998;6.250;2022-12-18T10:45:57;16.55;;;8.93;;
16665;SDS011;8446;50.998;6.250;2022-12-18T10:48:24;18.92;;;9.48;;
16665;SDS011;8446;50.998;6.250;2022-12-18T10:50:53;15.48;;;10.05;;
16665;SDS011;8446;50.998;6.250;2022-12-18T10:53:21;24.30;;;8.77;;
16665;SDS011;8446;50.998;6.250;2022-12-18T10:55:49;14.38;;;8.82;;
16665;SDS011;8446;50.998;6.250;2022-12-18T10:58:21;16.75;;;8.68;;
16665;SDS011;8446;50.998;6.250;2022-12-18T11:01:01;16.10;;;8.77;;
16665;SDS011;8446;50.998;6.250;2022-12-18T11:03:30;18.25;;;8.35;;
16665;SDS011;8446;50.998;6.250;2022-12-18T11:06:09;16.38;;;8.82;;
16665;SDS011;8446;50.998;6.250;2022-12-18T11:08:37;15.23;;;8.88;;
16665;SDS011;8446;50.998;6.250;2022-12-18T11:11:06;15.85;;;8.90;;
16665;SDS011;8446;50.998;6.250;2022-12-18T11:13:34;16.73;;;8.43;;
16665;SDS011;8446;50.998;6.250;2022-12-18T11:16:01;18.17;;;8.65;;
16665;SDS011;8446;50.998;6.250;2022-12-18T11:18:28;14.38;;;9.10;;
16665;SDS011;8446;50.998;6.250;2022-12-18T11:20:57;20.35;;;9.57;;
16665;SDS011;8446;50.998;6.250;2022-12-18T11:23:27;18.88;;;9.40;;
16665;SDS011;8446;50.998;6.250;2022-12-18T11:25:55;17.42;;;9.82;;
16665;SDS011;8446;50.998;6.250;2022-12-18T11:28:27;15.02;;;7.60;;
16665;SDS011;8446;50.998;6.250;2022-12-18T11:31:08;14.07;;;7.82;;
16665;SDS011;8446;50.998;6.250;2022-12-18T11:33:36;18.55;;;9.68;;
16665;SDS011;8446;50.998;6.250;2022-12-18T11:36:05;12.98;;;8.32;;
16665;SDS011;8446;50.998;6.250;2022-12-18T11:38:36;16.73;;;9.32;;
16665;SDS011;8446;50.998;6.250;2022-12-18T11:41:05;18.08;;;8.32;;
16665;SDS011;8446;50.998;6.250;2022-12-18T11:43:35;18.48;;;9.57;;
16665;SDS011;8446;50.998;6.250;2022-12-18T11:46:05;17.08;;;8.98;;
16665;SDS011;8446;50.998;6.250;2022-12-18T11:48:34;15.82;;;8.50;;
16665;SDS011;8446;50.998;6.250;2022-12-18T11:51:04;18.02;;;9.82;;
16665;SDS011;8446;50.998;6.250;2022-12-18T11:53:32;18.80;;;9.57;;
16665;SDS011;8446;50.998;6.250;2022-12-18T11:56:07;16.88;;;8.63;;
16665;SDS011;8446;50.998;6.250;2022-12-18T11:58:42;15.15;;;7.97;;
16665;SDS011;8446;50.998;6.250;2022-12-18T12:01:12;19.75;;;9.05;;
16665;SDS011;8446;50.998;6.250;2022-12-18T12:03:52;20.60;;;8.55;;
16665;SDS011;8446;50.998;6.250;2022-12-18T12:06:21;16.38;;;9.27;;
16665;SDS011;8446;50.998;6.250;2022-12-18T12:08:59;16.25;;;8.07;;
16665;SDS011;8446;50.998;6.250;2022-12-18T12:11:31;24.20;;;9.05;;
16665;SDS011;8446;50.998;6.250;2022-12-18T12:14:04;19.15;;;9.98;;
16665;SDS011;8446;50.998;6.250;2022-12-18T12:16:34;27.08;;;12.52;;
16665;SDS011;8446;50.998;6.250;2022-12-18T12:19:07;16.50;;;8.68;;
16665;SDS011;8446;50.998;6.250;2022-12-18T12:21:40;18.88;;;10.23;;
16665;SDS011;8446;50.998;6.250;2022-12-18T12:24:14;20.45;;;7.93;;
16665;SDS011;8446;50.998;6.250;2022-12-18T12:26:48;15.57;;;8.55;;
16665;SDS011;8446;50.998;6.250;2022-12-18T12:29:21;14.65;;;8.93;;
16665;SDS011;8446;50.998;6.250;2022-12-18T12:31:57;18.85;;;10.50;;
16665;SDS011;8446;50.998;6.250;2022-12-18T12:34:26;18.25;;;9.60;;
16665;SDS011;8446;50.998;6.250;2022-12-18T12:37:01;15.73;;;9.00;;
16665;SDS011;8446;50.998;6.250;2022-12-18T12:39:30;21.73;;;9.90;;
16665;SDS011;8446;50.998;6.250;2022-12-18T12:42:00;16.42;;;9.70;;
16665;SDS011;8446;50.998;6.250;2022-12-18T12:44:46;19.52;;;9.82;;
16665;SDS011;8446;50.998;6.250;2022-12-18T12:47:16;20.00;;;8.93;;
16665;SDS011;8446;50.998;6.250;2022-12-18T12:49:45;24.50;;;10.00;;
16665;SDS011;8446;50.998;6.250;2022-12-18T12:52:14;20.83;;;9.98;;
16665;SDS011;8446;50.998;6.250;2022-12-18T12:54:41;19.80;;;9.00;;
16665;SDS011;8446;50.998;6.250;2022-12-18T12:57:11;25.20;;;9.98;;
16665;SDS011;8446;50.998;6.250;2022-12-18T12:59:40;17.80;;;9.48;;
16665;SDS011;8446;50.998;6.250;2022-12-18T13:02:15;18.15;;;8.88;;
16665;SDS011;8446;50.998;6.250;2022-12-18T13:04:46;18.92;;;8.70;;
16665;SDS011;8446;50.998;6.250;2022-12-18T13:07:15;14.90;;;9.15;;
16665;SDS011;8446;50.998;6.250;2022-12-18T13:12:30;19.00;;;9.10;;
16665;SDS011;8446;50.998;6.250;2022-12-18T13:15:19;20.15;;;10.38;;
16665;SDS011;8446;50.998;6.250;2022-12-18T13:17:47;21.38;;;10.65;;
16665;SDS011;8446;50.998;6.250;2022-12-18T13:20:14;18.38;;;10.25;;
16665;SDS011;8446;50.998;6.250;2022-12-18T13:22:43;19.35;;;9.05;;
16665;SDS011;8446;50.998;6.250;2022-12-18T13:25:32;18.80;;;9.30;;
16665;SDS011;8446;50.998;6.250;2022-12-18T13:28:03;13.68;;;8.25;;
16665;SDS011;8446;50.998;6.250;2022-12-18T13:36:01;18.60;;;10.68;;
16665;SDS011;8446;50.998;6.250;2022-12-18T13:38:32;18.13;;;8.05;;
16665;SDS011;8446;50.998;6.250;2022-12-18T13:41:00;17.13;;;9.48;;
16665;SDS011;8446;50.998;6.250;2022-12-18T13:43:39;26.73;;;10.40;;
16665;SDS011;8446;50.998;6.250;2022-12-18T13:46:21;15.70;;;8.50;;
16665;SDS011;8446;50.998;6.250;2022-12-18T13:48:53;15.27;;;8.38;;
16665;SDS011;8446;50.998;6.250;2022-12-18T13:51:22;13.45;;;8.85;;
16665;SDS011;8446;50.998;6.250;2022-12-18T13:53:49;18.20;;;10.10;;
16665;SDS011;8446;50.998;6.250;2022-12-18T13:56:17;18.23;;;8.93;;
16665;SDS011;8446;50.998;6.250;2022-12-18T14:01:45;18.98;;;9.05;;
16665;SDS011;8446;50.998;6.250;2022-12-18T14:04:16;19.80;;;9.85;;
16665;SDS011;8446;50.998;6.250;2022-12-18T14:06:44;18.50;;;9.52;;
16665;SDS011;8446;50.998;6.250;2022-12-18T14:09:13;19.63;;;10.10;;
16665;SDS011;8446;50.998;6.250;2022-12-18T14:11:40;17.40;;;9.45;;
16665;SDS011;8446;50.998;6.250;2022-12-18T14:14:13;20.17;;;11.05;;
16665;SDS011;8446;50.998;6.250;2022-12-18T14:16:40;23.50;;;10.85;;
16665;SDS011;8446;50.998;6.250;2022-12-18T14:19:09;20.60;;;10.32;;
16665;SDS011;8446;50.998;6.250;2022-12-18T14:21:38;20.33;;;10.27;;
16665;SDS011;8446;50.998;6.250;2022-12-18T14:24:11;15.80;;;9.02;;
16665;SDS011;8446;50.998;6.250;2022-12-18T14:26:39;20.15;;;9.90;;
16665;SDS011;8446;50.998;6.250;2022-12-18T14:29:17;16.95;;;10.30;;
16665;SDS011;8446;50.998;6.250;2022-12-18T14:31:45;19.38;;;9.68;;
16665;SDS011;8446;50.998;6.250;2022-12-18T14:34:16;19.67;;;9.10;;
16665;SDS011;8446;50.998;6.250;2022-12-18T14:36:51;17.58;;;9.68;;
16665;SDS011;8446;50.998;6.250;2022-12-18T14:39:18;22.70;;;10.95;;
16665;SDS011;8446;50.998;6.250;2022-12-18T14:41:45;19.30;;;9.70;;
16665;SDS011;8446;50.998;6.250;2022-12-18T14:44:15;16.48;;;7.88;;
16665;SDS011;8446;50.998;6.250;2022-12-18T14:46:42;15.18;;;9.20;;
16665;SDS011;8446;50.998;6.250;2022-12-18T14:49:18;15.75;;;8.00;;
16665;SDS011;8446;50.998;6.250;2022-12-18T14:51:47;15.43;;;9.00;;
16665;SDS011;8446;50.998;6.250;2022-12-18T14:54:16;19.02;;;9.10;;
16665;SDS011;8446;50.998;6.250;2022-12-18T14:56:44;15.18;;;8.52;;
16665;SDS011;8446;50.998;6.250;2022-12-18T14:59:13;17.38;;;8.88;;
16665;SDS011;8446;50.998;6.250;2022-12-18T15:01:44;23.48;;;9.25;;
16665;SDS011;8446;50.998;6.250;2022-12-18T15:04:23;21.45;;;10.55;;
16665;SDS011;8446;50.998;6.250;2022-12-18T15:07:01;22.20;;;9.70;;
16665;SDS011;8446;50.998;6.250;2022-12-18T15:09:29;17.13;;;9.07;;
16665;SDS011;8446;50.998;6.250;2022-12-18T15:11:56;13.15;;;8.05;;
16665;SDS011;8446;50.998;6.250;2022-12-18T15:14:34;17.08;;;9.35;;